Sylhet, Bangladesh
Current Conditions -  °F | °C
As of 4:20 PM on Saturday 22 Nov 2014 (Local Time) from VGHS Reporting Station
Haze Haze  
Wind Chill: 81°   Ceiling: Unl
Heat Index: 81°   Visibility: 2.5mi
Dew Point: 52°   Wind: 6mph
Humidity: 37%   Direction: 320°NW
Pressure: 29.8"   Gusts: NA
Location:  24.9°N, 91.88°E
Report Text: VGHS 221020Z 32005KT 4000 HZ NSC 27/11 Q1009 NOSIG
Loading
Personal Weather Stations






























Interactive Weather Map New forecast layout! Learn more

10-Day Weather Forecast

Advertisements
Track Severe Weather on mobile